Time;durP1;ratioP1;P1;durP2;ratioP2;P2;SDS_P1;SDS_P2;PMS_P1;PMS_P2;Temp;Humidity;BMP_temperature;BMP_pressure;BME280_temperature;BME280_humidity;BME280_pressure;Samples;Min_cycle;Max_cycle;Signal;HPM_P1;HPM_P2
2022/11/12 00:01:24;;;;;;;13.63;9.05;;;9.00;99.90;;;;;;5038530;28;20123;-86
2022/11/12 00:03:50;;;;;;;12.27;8.82;;;9.60;99.90;;;;;;5036527;28;20116;-86
2022/11/12 00:06:16;;;;;;;14.88;9.43;;;9.00;99.90;;;;;;5007488;28;20049;-86
2022/11/12 00:08:42;;;;;;;12.00;9.25;;;8.90;99.90;;;;;;5056796;28;20523;-86
2022/11/12 00:11:07;;;;;;;15.65;8.93;;;10.30;99.90;;;;;;5033488;28;20038;-86
2022/11/12 00:13:33;;;;;;;11.88;8.73;;;9.50;99.90;;;;;;5017933;28;20375;-86
2022/11/12 00:15:58;;;;;;;13.32;9.27;;;10.10;99.90;;;;;;5018731;28;20081;-85
2022/11/12 00:18:24;;;;;;;15.77;9.07;;;9.40;99.90;;;;;;5037186;28;20060;-85
2022/11/12 00:20:50;;;;;;;15.55;9.63;;;9.90;99.90;;;;;;5016605;28;20053;-86
2022/11/12 00:23:15;;;;;;;13.30;9.13;;;10.30;99.90;;;;;;5031909;28;20044;-86
2022/11/12 00:25:41;;;;;;;16.23;8.95;;;9.70;99.90;;;;;;5026298;28;20497;-86
2022/11/12 00:28:09;;;;;;;15.18;9.52;;;8.90;99.90;;;;;;5055696;28;20041;-86
2022/11/12 00:30:37;;;;;;;13.70;8.88;;;8.80;99.90;;;;;;5043817;28;20168;-86
2022/11/12 00:33:04;;;;;;;15.48;9.43;;;8.80;99.90;;;;;;5040694;28;20037;-86
2022/11/12 00:35:31;;;;;;;15.90;10.20;;;8.70;99.90;;;;;;5045479;28;20095;-86
2022/11/12 00:37:57;;;;;;;15.40;9.25;;;8.70;99.90;;;;;;5036239;28;20129;-86
2022/11/12 00:40:23;;;;;;;18.02;9.30;;;8.80;99.90;;;;;;5035239;28;20478;-86
2022/11/12 00:42:51;;;;;;;17.02;9.60;;;8.80;99.90;;;;;;5035591;28;20128;-85
2022/11/12 00:45:17;;;;;;;16.02;9.80;;;8.70;99.90;;;;;;5019165;28;20052;-86
2022/11/12 00:47:43;;;;;;;15.32;9.57;;;9.90;99.90;;;;;;5035134;28;20403;-86
2022/11/12 00:50:09;;;;;;;19.02;9.48;;;8.70;99.90;;;;;;5047558;28;20037;-86
2022/11/12 00:52:34;;;;;;;14.25;9.55;;;9.90;99.90;;;;;;5022803;28;20083;-85
2022/11/12 00:55:00;;;;;;;13.73;8.82;;;9.10;99.90;;;;;;5053056;28;20124;-86
2022/11/12 00:57:26;;;;;;;12.20;8.90;;;10.10;99.90;;;;;;5056228;28;20481;-86
2022/11/12 00:59:51;;;;;;;15.90;9.40;;;10.00;99.90;;;;;;5028493;28;20060;-86
2022/11/12 01:02:18;;;;;;;15.35;9.45;;;9.00;99.90;;;;;;5061420;28;20048;-86
2022/11/12 01:04:44;;;;;;;14.63;10.10;;;9.80;99.90;;;;;;5059700;28;20157;-86
2022/11/12 01:07:11;;;;;;;13.07;9.30;;;8.70;99.90;;;;;;5036709;28;20072;-85
2022/11/12 01:09:36;;;;;;;14.45;9.57;;;8.60;99.90;;;;;;5072880;28;20051;-86
2022/11/12 01:12:02;;;;;;;16.80;10.00;;;8.50;99.90;;;;;;5075878;28;20056;-86
2022/11/12 01:14:28;;;;;;;18.08;10.23;;;8.50;99.90;;;;;;5075309;28;20036;-86
2022/11/12 01:16:53;;;;;;;15.48;9.70;;;8.50;99.90;;;;;;5053363;28;20052;-85
2022/11/12 01:19:19;;;;;;;12.73;9.57;;;8.50;99.90;;;;;;5037127;28;20037;-86
2022/11/12 01:21:44;;;;;;;15.10;10.32;;;8.60;99.90;;;;;;5068589;28;20114;-86
2022/11/12 01:24:10;;;;;;;14.70;10.40;;;8.40;99.90;;;;;;5055279;28;20037;-86
2022/11/12 01:26:37;;;;;;;14.63;10.25;;;8.80;99.90;;;;;;5058458;28;20052;-86
2022/11/12 01:29:03;;;;;;;13.20;9.50;;;9.10;99.90;;;;;;5066301;28;20044;-86
2022/11/12 01:31:34;;;;;;;16.25;10.80;;;8.50;99.90;;;;;;5072966;28;20043;-87
2022/11/12 01:34:03;;;;;;;15.70;10.27;;;8.30;99.90;;;;;;5037597;28;20103;-87
2022/11/12 01:36:32;;;;;;;15.35;9.93;;;8.30;99.90;;;;;;5036223;28;20041;-86
2022/11/12 01:38:58;;;;;;;17.55;9.93;;;9.20;99.90;;;;;;5020052;28;20052;-87
2022/11/12 01:41:26;;;;;;;15.10;10.63;;;8.20;99.90;;;;;;5019755;28;20041;-87
2022/11/12 01:44:08;;;;;;;15.70;10.98;;;8.20;99.90;;;;;;5023996;28;20188;-86
2022/11/12 01:46:40;;;;;;;15.52;10.90;;;8.80;99.90;;;;;;5073485;28;20041;-87
2022/11/12 01:49:11;;;;;;;13.75;10.68;;;8.10;99.90;;;;;;5039628;28;20094;-87
2022/11/12 01:51:42;;;;;;;15.02;11.07;;;8.10;99.90;;;;;;5055773;28;20493;-87
2022/11/12 01:54:11;;;;;;;16.45;10.93;;;8.60;99.90;;;;;;5039423;28;20382;-87
2022/11/12 01:56:37;;;;;;;16.73;11.10;;;8.80;99.90;;;;;;5075039;28;20044;-87
2022/11/12 01:59:08;;;;;;;17.70;11.45;;;8.10;99.90;;;;;;5072267;28;20045;-87
2022/11/12 02:01:35;;;;;;;16.13;11.43;;;8.90;99.90;;;;;;5024218;28;20449;-87
2022/11/12 02:04:01;;;;;;;16.60;11.60;;;8.00;99.90;;;;;;4999759;28;20049;-87
2022/11/12 02:06:27;;;;;;;20.80;12.93;;;9.30;99.90;;;;;;5050070;28;20069;-86
2022/11/12 02:08:52;;;;;;;16.88;12.13;;;8.00;99.90;;;;;;5045012;28;20069;-87
2022/11/12 02:11:20;;;;;;;17.67;11.52;;;8.00;99.90;;;;;;5020869;28;20096;-87
2022/11/12 02:13:56;;;;;;;16.98;12.50;;;8.00;99.90;;;;;;5018518;28;20069;-87
2022/11/12 02:16:28;;;;;;;16.50;11.70;;;8.00;99.90;;;;;;5015493;28;20053;-86
2022/11/12 02:18:54;;;;;;;19.73;12.95;;;8.00;99.90;;;;;;5017029;28;20050;-86
2022/11/12 02:21:23;;;;;;;17.10;12.00;;;8.00;99.90;;;;;;5015608;28;20132;-87
2022/11/12 02:24:15;;;;;;;18.00;12.32;;;8.00;99.90;;;;;;5014068;28;20049;-87
2022/11/12 02:26:48;;;;;;;16.77;12.73;;;8.00;99.90;;;;;;5006836;28;20056;-87
2022/11/12 02:29:14;;;;;;;18.27;13.07;;;8.90;99.90;;;;;;5054694;28;20132;-87
2022/11/12 02:31:39;;;;;;;19.17;13.07;;;7.90;99.90;;;;;;5041882;28;20474;-87
2022/11/12 02:34:05;;;;;;;18.55;12.73;;;9.10;99.90;;;;;;5016016;28;20037;-87
2022/11/12 02:36:30;;;;;;;20.17;13.15;;;7.90;99.90;;;;;;5015891;28;20111;-86
2022/11/12 02:38:57;;;;;;;17.65;12.68;;;7.80;99.90;;;;;;5034728;28;20053;-87
2022/11/12 02:41:23;;;;;;;18.20;13.02;;;7.80;99.90;;;;;;5036789;28;20045;-87
2022/11/12 02:43:48;;;;;;;16.25;12.50;;;7.80;99.90;;;;;;5028176;28;20039;-87
2022/11/12 02:46:14;;;;;;;17.60;12.77;;;7.80;99.90;;;;;;5032593;28;20041;-87
2022/11/12 02:48:40;;;;;;;19.65;13.75;;;7.80;99.90;;;;;;5051212;28;20044;-87
2022/11/12 02:51:06;;;;;;;19.10;13.18;;;7.70;99.90;;;;;;5034708;28;20049;-87
2022/11/12 02:53:32;;;;;;;17.80;13.23;;;7.70;99.90;;;;;;5052349;28;20033;-87
2022/11/12 02:55:59;;;;;;;19.83;13.60;;;7.70;99.90;;;;;;5035798;28;20094;-87
2022/11/12 02:58:25;;;;;;;19.73;13.52;;;7.70;99.90;;;;;;5021915;28;20089;-87
2022/11/12 03:00:50;;;;;;;20.25;13.70;;;7.60;99.90;;;;;;5045166;28;20053;-86
2022/11/12 03:03:16;;;;;;;19.23;13.82;;;8.60;99.90;;;;;;5054418;28;20083;-87
2022/11/12 03:05:44;;;;;;;18.88;13.23;;;9.10;99.90;;;;;;5054309;28;20123;-86
2022/11/12 03:08:09;;;;;;;19.08;13.52;;;7.60;99.90;;;;;;5066547;28;20117;-87
2022/11/12 03:10:38;;;;;;;20.05;14.30;;;7.90;99.90;;;;;;5033680;28;20511;-87
2022/11/12 03:13:05;;;;;;;19.50;13.85;;;7.60;99.90;;;;;;5052501;28;20040;-86
2022/11/12 03:15:31;;;;;;;21.38;14.32;;;7.60;99.90;;;;;;5052605;28;20085;-86
2022/11/12 03:17:58;;;;;;;20.60;14.10;;;7.70;99.90;;;;;;5037070;28;20092;-87
2022/11/12 03:20:24;;;;;;;17.77;14.20;;;7.60;99.90;;;;;;5032660;28;20087;-87
2022/11/12 03:22:59;;;;;;;18.30;14.07;;;9.00;99.90;;;;;;5078225;28;20049;-86
2022/11/12 03:25:25;;;;;;;19.50;14.65;;;7.50;99.90;;;;;;5070459;28;20509;-86
2022/11/12 03:28:12;;;;;;;21.52;14.73;;;7.60;99.90;;;;;;5039822;28;20048;-85
2022/11/12 03:30:39;;;;;;;21.20;15.48;;;7.60;99.90;;;;;;5033566;28;20495;-86
2022/11/12 03:33:07;;;;;;;25.98;16.10;;;7.50;99.90;;;;;;5062849;28;20118;-87
2022/11/12 03:35:33;;;;;;;25.42;15.82;;;7.50;99.90;;;;;;5061267;28;20037;-86
2022/11/12 03:37:59;;;;;;;25.17;15.23;;;7.50;99.90;;;;;;5038632;28;20076;-86
2022/11/12 03:40:26;;;;;;;21.70;14.93;;;7.50;99.90;;;;;;5038628;28;20466;-86
2022/11/12 03:42:52;;;;;;;21.75;15.23;;;7.50;99.90;;;;;;5055065;28;20047;-87
2022/11/12 03:45:20;;;;;;;24.23;16.08;;;8.70;99.90;;;;;;5038340;28;20080;-87
2022/11/12 03:47:48;;;;;;;24.63;16.33;;;8.00;99.90;;;;;;5056342;28;20037;-86
2022/11/12 03:50:15;;;;;;;20.92;16.10;;;7.40;99.90;;;;;;5021922;28;20059;-86
2022/11/12 03:52:45;;;;;;;20.63;15.70;;;7.50;99.90;;;;;;5036967;28;20451;-86
2022/11/12 03:55:12;;;;;;;19.25;15.40;;;7.40;99.90;;;;;;5056657;28;20448;-86
2022/11/12 03:57:37;;;;;;;26.13;17.23;;;7.40;99.90;;;;;;5039200;28;20037;-86
2022/11/12 04:00:05;;;;;;;23.05;16.15;;;7.40;99.90;;;;;;5047334;28;20065;-86
2022/11/12 04:02:31;;;;;;;26.27;16.17;;;7.40;99.90;;;;;;5019170;28;20041;-86
2022/11/12 04:10:28;;;;;;;23.60;15.55;;;7.40;99.90;;;;;;5029751;28;20049;-86
2022/11/12 04:15:39;;;;;;;23.15;16.83;;;7.40;99.90;;;;;;5047934;28;20379;-87
2022/11/12 04:23:32;;;;;;;22.70;16.85;;;7.50;99.90;;;;;;5019893;28;20123;-87
2022/11/12 04:31:27;;;;;;;22.35;17.75;;;7.40;99.90;;;;;;5046034;28;20131;-86
2022/11/12 04:33:52;;;;;;;22.88;17.48;;;8.50;99.90;;;;;;5037560;28;20470;-86
2022/11/12 04:36:18;;;;;;;25.52;17.05;;;7.30;99.90;;;;;;5004267;28;20038;-86
2022/11/12 04:38:44;;;;;;;25.27;17.13;;;7.70;99.90;;;;;;5035514;28;20037;-86
2022/11/12 04:46:38;;;;;;;25.75;16.75;;;7.20;99.90;;;;;;5041789;28;20122;-86
2022/11/12 04:49:04;;;;;;;21.60;17.55;;;7.30;99.90;;;;;;5017761;28;20525;-86
2022/11/12 04:54:13;;;;;;;23.90;17.73;;;7.30;99.90;;;;;;5054057;28;20045;-87
2022/11/12 04:56:39;;;;;;;23.73;17.98;;;7.90;99.90;;;;;;5038041;28;20496;-86
2022/11/12 04:59:05;;;;;;;24.55;17.70;;;7.20;99.90;;;;;;5036059;28;20129;-86
2022/11/12 05:01:30;;;;;;;27.05;18.35;;;7.10;99.90;;;;;;5039479;28;20049;-86
2022/11/12 05:03:56;;;;;;;24.25;17.45;;;7.10;99.90;;;;;;5037479;28;20053;-86
2022/11/12 05:09:06;;;;;;;22.75;15.75;;;7.10;99.90;;;;;;5036653;28;20053;-87
2022/11/12 05:11:31;;;;;;;21.17;16.70;;;8.10;99.90;;;;;;5020221;28;20517;-86
2022/11/12 05:13:57;;;;;;;23.55;16.48;;;8.00;99.90;;;;;;5020166;28;20041;-86
2022/11/12 05:16:23;;;;;;;21.55;16.30;;;7.10;99.90;;;;;;5044766;28;20046;-86
2022/11/12 05:18:48;;;;;;;23.73;16.92;;;7.00;99.90;;;;;;5035968;28;20271;-86
2022/11/12 05:23:58;;;;;;;22.73;17.35;;;7.10;99.90;;;;;;5015434;28;20042;-86
2022/11/12 05:26:24;;;;;;;23.13;16.08;;;7.00;99.90;;;;;;5040465;28;20048;-86
2022/11/12 05:28:49;;;;;;;24.27;16.48;;;7.00;99.90;;;;;;5022490;28;20046;-86
2022/11/12 05:31:15;;;;;;;21.40;16.50;;;7.00;99.90;;;;;;5033854;28;20057;-86
2022/11/12 05:33:40;;;;;;;24.98;17.40;;;8.10;99.90;;;;;;5035813;28;20056;-86
2022/11/12 05:36:06;;;;;;;24.83;17.77;;;7.00;99.90;;;;;;5054190;28;20482;-86
2022/11/12 05:38:32;;;;;;;22.55;17.27;;;7.00;99.90;;;;;;5054138;28;20045;-86
2022/11/12 05:40:58;;;;;;;27.40;18.80;;;8.00;99.90;;;;;;5035978;28;20043;-86
2022/11/12 05:43:23;;;;;;;26.10;18.50;;;7.00;99.90;;;;;;5035832;28;20049;-86
2022/11/12 05:45:49;;;;;;;26.65;17.92;;;7.00;99.90;;;;;;5034356;28;20049;-86
2022/11/12 05:48:14;;;;;;;24.58;17.38;;;7.00;99.90;;;;;;5035868;28;20045;-86
2022/11/12 05:50:40;;;;;;;25.70;18.45;;;7.00;99.90;;;;;;5016974;28;20049;-86
2022/11/12 05:53:05;;;;;;;25.95;18.30;;;7.00;99.90;;;;;;5016217;28;20422;-86
2022/11/12 05:55:31;;;;;;;28.63;19.30;;;7.00;99.90;;;;;;5034405;28;20042;-86
2022/11/12 05:57:57;;;;;;;25.75;18.58;;;6.90;99.90;;;;;;5033919;28;20133;-86
2022/11/12 06:00:22;;;;;;;27.83;19.83;;;7.00;99.90;;;;;;5029357;28;20049;-86
2022/11/12 06:02:48;;;;;;;27.92;20.10;;;7.00;99.90;;;;;;5052095;28;20608;-86
2022/11/12 06:05:13;;;;;;;29.73;20.92;;;7.00;99.90;;;;;;5034995;28;20041;-86
2022/11/12 06:07:39;;;;;;;27.67;20.20;;;7.00;99.90;;;;;;5053458;28;20048;-86
2022/11/12 06:10:05;;;;;;;27.10;19.48;;;6.90;99.90;;;;;;5041075;28;20381;-85
2022/11/12 06:12:31;;;;;;;30.38;20.23;;;6.90;99.90;;;;;;5018114;28;20037;-86
2022/11/12 06:14:57;;;;;;;28.20;20.13;;;6.90;99.90;;;;;;5053383;28;20043;-86
2022/11/12 06:17:22;;;;;;;27.17;20.10;;;6.90;99.90;;;;;;5019869;28;20049;-85
2022/11/12 06:19:48;;;;;;;27.50;20.00;;;6.90;99.90;;;;;;5053706;28;20047;-85
2022/11/12 06:22:13;;;;;;;30.77;21.30;;;6.90;99.90;;;;;;5054395;28;20044;-86
2022/11/12 06:24:39;;;;;;;29.88;20.63;;;6.90;99.90;;;;;;5066383;28;20028;-85
2022/11/12 06:27:05;;;;;;;26.25;20.08;;;6.90;99.90;;;;;;5053364;28;20482;-86
2022/11/12 06:29:30;;;;;;;29.98;21.58;;;6.80;99.90;;;;;;5036889;28;20044;-85
2022/11/12 06:31:56;;;;;;;34.42;22.42;;;6.80;99.90;;;;;;5035476;28;20131;-85
2022/11/12 06:34:21;;;;;;;34.33;21.50;;;6.80;99.90;;;;;;5045100;28;20048;-85
2022/11/12 06:36:48;;;;;;;33.47;21.60;;;6.80;99.90;;;;;;5046200;28;20127;-86
2022/11/12 06:39:13;;;;;;;30.23;22.02;;;6.90;99.90;;;;;;5051178;28;20386;-86
2022/11/12 06:41:39;;;;;;;30.27;21.23;;;7.50;99.90;;;;;;5041119;28;20056;-86
2022/11/12 06:44:05;;;;;;;31.80;22.70;;;6.80;99.90;;;;;;5047716;28;20052;-87
2022/11/12 06:46:31;;;;;;;28.40;20.25;;;6.80;99.90;;;;;;5034857;28;20067;-87
2022/11/12 06:48:56;;;;;;;26.77;20.25;;;6.80;99.90;;;;;;5053161;28;20049;-86
2022/11/12 06:51:22;;;;;;;29.52;21.20;;;6.80;99.90;;;;;;5036385;28;20112;-86
2022/11/12 06:53:48;;;;;;;29.27;20.60;;;7.60;99.90;;;;;;5047779;28;20053;-85
2022/11/12 06:56:14;;;;;;;28.67;21.65;;;6.70;99.90;;;;;;5055238;28;20044;-86
2022/11/12 06:58:40;;;;;;;31.73;21.23;;;6.70;99.90;;;;;;5064049;28;20037;-86
2022/11/12 07:01:07;;;;;;;31.33;21.50;;;6.80;99.90;;;;;;5033732;28;20064;-86
2022/11/12 07:03:34;;;;;;;27.25;19.38;;;6.80;99.90;;;;;;5032852;28;20457;-85
2022/11/12 07:06:06;;;;;;;28.70;19.30;;;6.90;99.90;;;;;;5014909;28;20382;-86
2022/11/12 07:08:31;;;;;;;24.60;18.70;;;6.90;99.90;;;;;;5017415;28;20084;-86
2022/11/12 07:10:57;;;;;;;28.75;19.20;;;6.90;99.90;;;;;;5034419;28;20068;-86
2022/11/12 07:13:23;;;;;;;28.83;19.80;;;6.90;99.90;;;;;;5049745;28;20334;-86
2022/11/12 07:15:49;;;;;;;29.90;18.27;;;6.90;99.90;;;;;;5027398;28;20045;-86
2022/11/12 07:18:14;;;;;;;33.22;18.75;;;7.90;99.90;;;;;;5030619;28;20041;-86
2022/11/12 07:20:40;;;;;;;66.60;21.80;;;7.40;99.90;;;;;;5035252;28;20106;-87
2022/11/12 07:23:06;;;;;;;44.22;20.73;;;6.90;99.90;;;;;;5050604;28;20398;-86
2022/11/12 07:25:31;;;;;;;31.38;19.13;;;6.90;99.90;;;;;;5034780;28;20087;-87
2022/11/12 07:27:57;;;;;;;62.60;22.23;;;6.80;99.90;;;;;;5035106;28;20478;-86
2022/11/12 07:30:22;;;;;;;56.65;21.52;;;8.00;99.90;;;;;;5052631;28;20127;-87
2022/11/12 07:32:48;;;;;;;86.53;22.35;;;6.90;99.90;;;;;;5054601;28;20077;-86
2022/11/12 07:35:14;;;;;;;82.28;23.48;;;6.90;99.90;;;;;;5036281;28;20053;-86
2022/11/12 07:37:39;;;;;;;134.10;26.45;;;6.80;99.90;;;;;;5035410;28;20496;-86
2022/11/12 07:40:05;;;;;;;154.38;27.10;;;6.80;99.90;;;;;;5052314;28;20442;-86
2022/11/12 07:42:32;;;;;;;182.10;28.80;;;6.80;99.90;;;;;;5034587;28;20052;-86
2022/11/12 07:44:58;;;;;;;201.02;31.40;;;7.80;99.90;;;;;;5018508;28;20099;-86
2022/11/12 07:47:23;;;;;;;170.30;32.10;;;6.80;99.90;;;;;;5043131;28;20037;-86
2022/11/12 07:49:49;;;;;;;195.82;33.30;;;6.80;99.90;;;;;;5034260;28;20071;-86
2022/11/12 07:52:16;;;;;;;173.50;34.00;;;6.80;99.90;;;;;;5036291;28;20095;-86
2022/11/12 07:54:41;;;;;;;166.73;32.92;;;6.80;99.90;;;;;;5032510;28;20045;-86
2022/11/12 07:57:07;;;;;;;175.13;36.45;;;6.80;99.90;;;;;;5014580;28;20111;-87
2022/11/12 07:59:32;;;;;;;212.07;38.90;;;6.80;99.90;;;;;;5042302;28;20056;-86
2022/11/12 08:01:58;;;;;;;262.17;39.92;;;6.80;99.90;;;;;;5034038;28;20050;-86
2022/11/12 08:04:23;;;;;;;225.38;38.00;;;6.90;99.90;;;;;;5039819;28;20052;-87
2022/11/12 08:06:49;;;;;;;228.00;39.28;;;6.90;99.90;;;;;;5037203;28;20119;-87
2022/11/12 08:09:15;;;;;;;405.45;47.60;;;7.00;99.90;;;;;;5039116;28;20489;-86
2022/11/12 08:11:41;;;;;;;233.18;43.00;;;6.90;99.90;;;;;;5055857;28;20049;-87
2022/11/12 08:14:06;;;;;;;200.45;41.83;;;7.00;99.90;;;;;;5021764;28;20040;-87
2022/11/12 08:16:32;;;;;;;198.88;43.03;;;7.10;99.90;;;;;;5056032;28;20509;-84
2022/11/12 08:18:59;;;;;;;228.30;41.15;;;7.30;99.90;;;;;;5052586;28;20098;-87
2022/11/12 08:21:25;;;;;;;216.95;41.92;;;7.90;99.90;;;;;;5001588;28;20129;-86
2022/11/12 08:23:51;;;;;;;163.95;33.92;;;7.10;99.90;;;;;;5018047;28;20124;-86
2022/11/12 08:26:18;;;;;;;168.15;35.17;;;8.50;99.90;;;;;;5017537;28;20037;-86
2022/11/12 08:28:44;;;;;;;144.15;32.42;;;7.30;99.90;;;;;;5018028;28;20083;-86
2022/11/12 08:31:12;;;;;;;231.38;33.58;;;8.40;99.90;;;;;;5002478;28;20045;-87
2022/11/12 08:33:39;;;;;;;242.18;35.00;;;7.40;99.90;;;;;;5006470;28;20044;-86
2022/11/12 08:36:07;;;;;;;154.98;33.88;;;8.80;99.90;;;;;;5022789;28;20045;-86
2022/11/12 08:38:34;;;;;;;137.95;29.38;;;7.40;99.90;;;;;;5018590;28;20399;-85
2022/11/12 08:41:08;;;;;;;160.30;31.77;;;7.40;99.90;;;;;;5036956;28;20045;-87
2022/11/12 08:43:34;;;;;;;203.27;33.60;;;8.30;99.90;;;;;;5002030;28;20512;-86
2022/11/12 08:46:01;;;;;;;190.10;33.33;;;7.40;99.90;;;;;;5042968;28;20048;-86
2022/11/12 08:48:28;;;;;;;162.98;32.72;;;7.50;99.90;;;;;;5037640;28;20400;-85
2022/11/12 08:50:54;;;;;;;140.88;31.33;;;7.50;99.90;;;;;;5049476;28;20045;-86
2022/11/12 08:53:22;;;;;;;197.13;35.03;;;7.50;99.90;;;;;;5045999;28;20316;-87
2022/11/12 08:55:47;;;;;;;139.70;31.58;;;7.60;99.90;;;;;;5054940;28;20393;-86
2022/11/12 08:58:13;;;;;;;161.88;33.15;;;7.60;99.90;;;;;;5054108;28;20041;-86
2022/11/12 09:00:42;;;;;;;161.80;31.48;;;7.60;99.90;;;;;;5053125;28;20055;-86
2022/11/12 09:03:13;;;;;;;179.23;32.40;;;8.60;99.90;;;;;;5036805;28;20128;-86
2022/11/12 09:05:39;;;;;;;160.63;33.10;;;7.70;99.90;;;;;;5029848;28;20041;-86
2022/11/12 09:08:08;;;;;;;134.75;33.33;;;9.00;99.90;;;;;;5030416;28;20047;-86
2022/11/12 09:10:35;;;;;;;202.25;33.63;;;7.70;99.90;;;;;;5041848;28;20053;-86
2022/11/12 09:13:01;;;;;;;162.20;31.92;;;7.80;99.90;;;;;;5033804;28;20037;-86
2022/11/12 09:15:28;;;;;;;186.65;34.28;;;7.80;99.90;;;;;;5015211;28;20085;-87
2022/11/12 09:17:55;;;;;;;132.30;31.90;;;7.90;99.90;;;;;;5000502;28;20125;-86
2022/11/12 09:20:22;;;;;;;165.90;33.03;;;8.00;99.90;;;;;;5034571;28;20517;-86
2022/11/12 09:22:48;;;;;;;235.82;38.35;;;8.00;99.90;;;;;;5035673;28;20034;-86
2022/11/12 09:25:13;;;;;;;205.57;35.55;;;9.30;99.90;;;;;;5017563;28;20046;-86
2022/11/12 09:27:39;;;;;;;238.48;38.22;;;8.00;99.90;;;;;;5016792;28;20041;-84
2022/11/12 09:30:05;;;;;;;177.95;35.10;;;8.00;99.90;;;;;;5016138;28;20073;-83
2022/11/12 09:32:31;;;;;;;184.27;35.10;;;8.00;99.90;;;;;;5036042;28;20084;-82
2022/11/12 09:34:57;;;;;;;227.88;35.25;;;8.70;99.90;;;;;;5019723;28;20455;-82
2022/11/12 09:37:22;;;;;;;173.20;33.35;;;8.10;99.90;;;;;;5020898;28;20084;-84
2022/11/12 09:39:48;;;;;;;163.30;32.55;;;8.40;99.90;;;;;;5037391;28;20041;-84
2022/11/12 09:42:17;;;;;;;182.23;34.28;;;8.40;99.90;;;;;;5054026;28;20045;-84
2022/11/12 09:44:51;;;;;;;218.65;36.92;;;8.50;99.90;;;;;;5019536;28;20048;-87
2022/11/12 09:47:23;;;;;;;178.57;35.33;;;8.20;99.90;;;;;;5053873;28;20041;-85
2022/11/12 09:50:09;;;;;;;164.35;35.15;;;8.10;99.90;;;;;;5054138;28;20146;-86
2022/11/12 09:52:36;;;;;;;192.13;35.10;;;8.20;99.90;;;;;;5053641;28;20063;-86
2022/11/12 09:55:11;;;;;;;155.68;32.67;;;8.30;99.90;;;;;;5054352;28;20053;-87
2022/11/12 09:57:37;;;;;;;168.68;34.72;;;8.30;99.90;;;;;;5039367;28;20056;-87
2022/11/12 10:00:15;;;;;;;169.55;36.30;;;9.10;99.90;;;;;;5047631;28;20178;-87
2022/11/12 10:03:03;;;;;;;162.52;33.33;;;8.30;99.90;;;;;;5074735;28;20048;-87
2022/11/12 10:05:55;;;;;;;197.73;34.75;;;8.30;99.90;;;;;;5072960;28;20131;-87
2022/11/12 10:08:44;;;;;;;131.13;31.40;;;8.30;99.90;;;;;;5073994;28;20435;-87
2022/11/12 10:11:28;;;;;;;144.35;32.65;;;8.30;99.90;;;;;;5055219;28;20048;-87
2022/11/12 10:14:02;;;;;;;122.70;32.08;;;8.40;99.90;;;;;;5073901;28;20037;-87
2022/11/12 10:16:56;;;;;;;130.23;34.10;;;8.40;99.90;;;;;;5073515;28;20455;-87
2022/11/12 10:19:28;;;;;;;112.43;31.63;;;9.20;99.90;;;;;;5072843;28;20109;-88
2022/11/12 10:22:18;;;;;;;137.80;32.90;;;8.40;99.90;;;;;;5073089;28;20050;-87
2022/11/12 10:24:44;;;;;;;99.15;31.92;;;8.40;99.90;;;;;;5055612;28;20040;-87
2022/11/12 10:27:15;;;;;;;113.18;33.50;;;8.40;99.90;;;;;;5073389;28;20566;-88
2022/11/12 10:29:43;;;;;;;103.75;32.95;;;8.40;99.90;;;;;;5073281;28;20499;-87
2022/11/12 10:32:14;;;;;;;94.32;32.78;;;8.40;99.90;;;;;;5055339;28;20044;-86
2022/11/12 10:34:39;;;;;;;99.65;32.47;;;8.40;99.90;;;;;;5035462;28;20045;-81
2022/11/12 10:37:10;;;;;;;89.13;31.80;;;7.80;99.90;;;;;;5053753;28;20056;-85
2022/11/12 10:39:39;;;;;;;91.45;30.73;;;8.50;99.90;;;;;;5036071;28;20048;-87
2022/11/12 10:42:09;;;;;;;130.23;31.83;;;8.50;99.90;;;;;;5053442;28;20045;-86
2022/11/12 10:44:35;;;;;;;100.65;32.00;;;8.60;99.90;;;;;;5035109;28;20041;-86
2022/11/12 10:47:26;;;;;;;82.97;29.33;;;8.10;99.90;;;;;;5034077;28;20052;-86
2022/11/12 10:50:21;;;;;;;74.55;29.00;;;8.50;99.90;;;;;;5052775;28;20137;-86
2022/11/12 10:52:59;;;;;;;98.82;28.45;;;8.50;99.90;;;;;;5009140;28;20091;-82
2022/11/12 10:55:28;;;;;;;56.08;27.15;;;9.00;99.90;;;;;;5038078;28;20122;-85
2022/11/12 10:58:18;;;;;;;85.18;29.67;;;8.60;99.90;;;;;;5056578;28;20124;-85
2022/11/12 11:00:59;;;;;;;86.65;28.83;;;8.60;99.90;;;;;;5055238;28;20125;-86
2022/11/12 11:03:34;;;;;;;96.28;29.77;;;8.60;99.90;;;;;;5073156;28;20063;-86
2022/11/12 11:06:04;;;;;;;75.07;29.98;;;8.50;99.90;;;;;;5072424;28;20092;-85
2022/11/12 11:08:42;;;;;;;65.63;30.45;;;8.50;99.90;;;;;;5037683;28;20178;-85
2022/11/12 11:11:22;;;;;;;58.35;27.90;;;8.60;99.90;;;;;;5072704;28;20075;-86
2022/11/12 11:13:50;;;;;;;56.25;26.75;;;8.60;99.90;;;;;;5054954;28;20131;-85
2022/11/12 11:16:26;;;;;;;65.22;28.73;;;8.70;99.90;;;;;;5037167;28;20097;-86
2022/11/12 11:19:04;;;;;;;66.47;26.30;;;8.70;99.90;;;;;;5071023;28;20488;-85
2022/11/12 11:21:47;;;;;;;98.10;28.55;;;8.70;99.90;;;;;;5052829;28;20044;-85
2022/11/12 11:24:28;;;;;;;63.65;28.38;;;8.70;99.90;;;;;;5072573;28;20110;-85
2022/11/12 11:27:03;;;;;;;60.38;28.55;;;8.60;99.90;;;;;;5054068;28;20142;-85
2022/11/12 11:29:53;;;;;;;61.58;30.40;;;8.60;99.90;;;;;;5053343;28;20476;-85
2022/11/12 11:32:25;;;;;;;53.28;28.52;;;8.50;99.90;;;;;;5053077;28;20323;-85
2022/11/12 11:35:12;;;;;;;58.03;29.40;;;8.50;99.90;;;;;;5034171;28;20159;-85
2022/11/12 11:38:00;;;;;;;53.10;29.35;;;8.60;99.90;;;;;;5019289;28;20048;-85
2022/11/12 11:40:57;;;;;;;56.38;29.55;;;8.60;99.90;;;;;;4975837;28;20065;-86
2022/11/12 11:43:57;;;;;;;59.08;30.05;;;8.70;99.90;;;;;;4935607;28;20055;-84
2022/11/12 11:46:40;;;;;;;49.75;28.88;;;8.70;99.90;;;;;;5038712;28;20497;-83
2022/11/12 11:49:43;;;;;;;50.95;29.15;;;8.80;99.90;;;;;;5068292;28;20401;-84
2022/11/12 11:52:50;;;;;;;49.33;29.52;;;8.90;99.90;;;;;;5055872;28;20486;-85
2022/11/12 11:55:23;;;;;;;44.30;27.00;;;8.90;99.90;;;;;;5011167;28;20057;-85
2022/11/12 11:57:54;;;;;;;51.13;27.92;;;8.90;99.90;;;;;;5067256;28;20521;-85
2022/11/12 12:00:24;;;;;;;53.10;29.88;;;9.00;99.90;;;;;;5038061;28;20053;-85
2022/11/12 12:03:16;;;;;;;47.03;28.55;;;9.00;99.90;;;;;;5055657;28;20068;-84
2022/11/12 12:05:50;;;;;;;56.00;29.95;;;9.00;99.90;;;;;;5033794;28;20102;-86
2022/11/12 12:08:32;;;;;;;51.67;29.50;;;9.00;99.90;;;;;;5040059;28;20045;-83
2022/11/12 12:11:25;;;;;;;46.05;28.50;;;9.00;99.90;;;;;;5042407;28;20044;-84
2022/11/12 12:13:56;;;;;;;43.90;27.17;;;9.00;99.90;;;;;;5075603;28;20040;-83
2022/11/12 12:16:46;;;;;;;47.78;28.92;;;9.00;99.90;;;;;;5075204;28;20041;-83
2022/11/12 12:19:33;;;;;;;48.40;29.95;;;9.00;99.90;;;;;;5075323;28;20120;-83
2022/11/12 12:22:02;;;;;;;44.70;28.35;;;9.10;99.90;;;;;;5057667;28;20048;-85
2022/11/12 12:24:51;;;;;;;41.65;28.33;;;9.30;99.90;;;;;;5056121;28;20465;-85
2022/11/12 12:27:33;;;;;;;42.85;28.77;;;9.20;99.90;;;;;;5057958;28;20123;-84
2022/11/12 12:30:20;;;;;;;46.50;29.42;;;9.30;99.90;;;;;;5042900;28;20091;-84
2022/11/12 12:33:31;;;;;;;45.00;28.48;;;9.30;99.90;;;;;;5041488;28;20052;-84
2022/11/12 12:36:11;;;;;;;44.25;28.48;;;9.30;99.90;;;;;;4973288;28;20070;-84
2022/11/12 12:38:51;;;;;;;49.83;29.63;;;9.30;99.90;;;;;;5035897;28;20090;-77
2022/11/12 12:41:43;;;;;;;40.53;28.45;;;9.30;99.90;;;;;;5071559;28;20105;-77
2022/11/12 12:44:10;;;;;;;45.90;29.10;;;10.00;99.90;;;;;;5071688;28;20048;-77
2022/11/12 12:46:46;;;;;;;43.80;28.38;;;9.40;99.90;;;;;;5071184;28;20086;-77
2022/11/12 12:49:19;;;;;;;41.63;28.98;;;9.40;99.90;;;;;;5052562;28;20087;-78
2022/11/12 12:51:45;;;;;;;42.03;29.65;;;9.50;99.90;;;;;;5071104;28;20041;-77
2022/11/12 12:54:35;;;;;;;45.42;30.08;;;9.50;99.90;;;;;;5020539;28;20049;-77
2022/11/12 12:57:29;;;;;;;44.60;29.10;;;9.60;99.90;;;;;;5033276;28;20405;-75
2022/11/12 13:00:34;;;;;;;40.03;28.67;;;9.60;99.90;;;;;;5042345;28;20049;-76
2022/11/12 13:02:59;;;;;;;42.60;28.92;;;9.70;99.90;;;;;;5013240;28;20056;-76
2022/11/12 13:05:43;;;;;;;40.92;27.40;;;10.00;99.90;;;;;;5013348;28;20472;-77
2022/11/12 13:08:19;;;;;;;40.30;27.63;;;9.90;99.90;;;;;;5014446;28;20045;-77
2022/11/12 13:10:47;;;;;;;37.92;27.30;;;10.20;99.90;;;;;;4997001;28;20041;-77
2022/11/12 13:13:19;;;;;;;41.17;28.10;;;9.70;99.90;;;;;;5013515;28;20085;-77
2022/11/12 13:15:56;;;;;;;39.63;28.40;;;9.80;99.90;;;;;;5034341;28;20048;-77
2022/11/12 13:18:37;;;;;;;39.78;28.95;;;9.80;99.90;;;;;;5050882;28;20467;-78
2022/11/12 13:21:15;;;;;;;42.72;28.75;;;10.00;99.90;;;;;;5043689;28;20053;-77
2022/11/12 13:24:06;;;;;;;38.17;28.35;;;9.80;99.90;;;;;;5013526;28;20455;-77